sensor_id;sensor_type;location;lat;lon;timestamp;pressure;altitude;pressure_sealevel;temperature;humidity
69524;BME280;56723;42.694;23.286;2023-04-21T05:27:34;94704.78;;;10.21;73.03
69524;BME280;56723;42.694;23.286;2023-04-21T05:30:01;94704.75;;;10.29;73.03
69524;BME280;56723;42.694;23.286;2023-04-21T05:32:28;94707.97;;;10.31;72.60
69524;BME280;56723;42.694;23.286;2023-04-21T05:34:55;94716.06;;;10.36;72.77
69524;BME280;56723;42.694;23.286;2023-04-21T05:37:22;94706.78;;;10.41;72.87
69524;BME280;56723;42.694;23.286;2023-04-21T05:39:50;94714.69;;;10.48;72.34
69524;BME280;56723;42.694;23.286;2023-04-21T05:42:17;94714.34;;;10.51;72.26
69524;BME280;56723;42.694;23.286;2023-04-21T05:44:44;94710.59;;;10.54;72.22
69524;BME280;56723;42.694;23.286;2023-04-21T05:47:11;94708.66;;;10.56;71.61
69524;BME280;56723;42.694;23.286;2023-04-21T05:49:37;94709.72;;;10.61;71.68
69524;BME280;56723;42.694;23.286;2023-04-21T05:52:08;94709.03;;;10.67;71.78
69524;BME280;56723;42.694;23.286;2023-04-21T05:54:35;94711.50;;;10.84;71.80
69524;BME280;56723;42.694;23.286;2023-04-21T05:57:02;94715.50;;;10.94;70.51
69524;BME280;56723;42.694;23.286;2023-04-21T05:59:29;94712.69;;;10.96;70.23
69524;BME280;56723;42.694;23.286;2023-04-21T06:01:56;94705.91;;;10.95;70.30
69524;BME280;56723;42.694;23.286;2023-04-21T06:04:23;94706.34;;;10.98;70.28
69524;BME280;56723;42.694;23.286;2023-04-21T06:06:50;94700.13;;;11.07;70.29
69524;BME280;56723;42.694;23.286;2023-04-21T06:09:17;94705.16;;;11.09;69.91
69524;BME280;56723;42.694;23.286;2023-04-21T06:11:44;94701.03;;;11.15;70.99
69524;BME280;56723;42.694;23.286;2023-04-21T06:14:11;94690.59;;;11.23;70.60
69524;BME280;56723;42.694;23.286;2023-04-21T06:16:38;94689.72;;;11.30;69.80
69524;BME280;56723;42.694;23.286;2023-04-21T06:19:05;94679.88;;;11.40;70.43
69524;BME280;56723;42.694;23.286;2023-04-21T06:21:32;94698.03;;;11.55;68.94
69524;BME280;56723;42.694;23.286;2023-04-21T06:23:59;94702.34;;;11.48;69.70
69524;BME280;56723;42.694;23.286;2023-04-21T06:26:26;94694.19;;;11.36;69.87
69524;BME280;56723;42.694;23.286;2023-04-21T06:28:52;94702.25;;;11.41;69.72
69524;BME280;56723;42.694;23.286;2023-04-21T06:31:19;94702.25;;;11.41;70.08
69524;BME280;56723;42.694;23.286;2023-04-21T06:33:46;94700.28;;;11.43;70.48
69524;BME280;56723;42.694;23.286;2023-04-21T06:36:13;94695.78;;;11.52;69.97
69524;BME280;56723;42.694;23.286;2023-04-21T06:38:43;94692.94;;;11.62;69.52
69524;BME280;56723;42.694;23.286;2023-04-21T06:41:10;94699.63;;;11.71;69.62
69524;BME280;56723;42.694;23.286;2023-04-21T06:43:37;94694.75;;;11.76;68.77
69524;BME280;56723;42.694;23.286;2023-04-21T06:46:04;94686.31;;;11.74;68.67
69524;BME280;56723;42.694;23.286;2023-04-21T06:48:31;94690.38;;;11.76;69.21
69524;BME280;56723;42.694;23.286;2023-04-21T06:50:58;94685.44;;;11.82;68.66
69524;BME280;56723;42.694;23.286;2023-04-21T06:53:26;94686.53;;;11.87;68.37
69524;BME280;56723;42.694;23.286;2023-04-21T06:55:53;94680.22;;;11.96;67.69
69524;BME280;56723;42.694;23.286;2023-04-21T06:58:20;94682.66;;;11.98;68.21
69524;BME280;56723;42.694;23.286;2023-04-21T07:00:47;94679.50;;;12.02;67.79
69524;BME280;56723;42.694;23.286;2023-04-21T07:03:14;94682.75;;;12.04;67.81
69524;BME280;56723;42.694;23.286;2023-04-21T07:05:41;94679.34;;;11.89;68.61
69524;BME280;56723;42.694;23.286;2023-04-21T07:08:08;94679.34;;;11.89;69.38
69524;BME280;56723;42.694;23.286;2023-04-21T07:10:35;94679.88;;;11.99;69.34
69524;BME280;56723;42.694;23.286;2023-04-21T07:13:02;94677.69;;;12.18;68.62
69524;BME280;56723;42.694;23.286;2023-04-21T07:15:29;94681.91;;;12.19;68.17
69524;BME280;56723;42.694;23.286;2023-04-21T07:17:56;94678.19;;;12.28;68.20
69524;BME280;56723;42.694;23.286;2023-04-21T07:20:24;94679.56;;;12.45;68.27
69524;BME280;56723;42.694;23.286;2023-04-21T07:22:51;94681.50;;;12.58;67.28
69524;BME280;56723;42.694;23.286;2023-04-21T07:25:18;94675.69;;;12.56;66.74
69524;BME280;56723;42.694;23.286;2023-04-21T07:27:45;94672.28;;;12.55;65.68
69524;BME280;56723;42.694;23.286;2023-04-21T07:30:12;94672.53;;;12.60;65.75
69524;BME280;56723;42.694;23.286;2023-04-21T07:32:39;94677.22;;;12.71;65.52
69524;BME280;56723;42.694;23.286;2023-04-21T07:35:07;94675.50;;;12.78;64.93
69524;BME280;56723;42.694;23.286;2023-04-21T07:37:34;94671.91;;;12.79;64.25
69524;BME280;56723;42.694;23.286;2023-04-21T07:40:01;94670.13;;;12.80;64.60
69524;BME280;56723;42.694;23.286;2023-04-21T07:42:28;94665.00;;;12.93;63.97
69524;BME280;56723;42.694;23.286;2023-04-21T07:44:55;94666.91;;;13.06;63.45
69524;BME280;56723;42.694;23.286;2023-04-21T07:47:23;94670.19;;;13.14;63.22
69524;BME280;56723;42.694;23.286;2023-04-21T07:49:50;94666.47;;;13.24;62.30
69524;BME280;56723;42.694;23.286;2023-04-21T07:52:17;94675.94;;;13.31;61.91
69524;BME280;56723;42.694;23.286;2023-04-21T07:54:44;94672.09;;;13.27;62.40
69524;BME280;56723;42.694;23.286;2023-04-21T07:57:11;94677.91;;;13.29;62.44
69524;BME280;56723;42.694;23.286;2023-04-21T07:59:39;94677.63;;;13.45;62.12
69524;BME280;56723;42.694;23.286;2023-04-21T08:02:06;94673.03;;;13.47;60.98
69524;BME280;56723;42.694;23.286;2023-04-21T08:04:34;94681.16;;;13.38;61.57
69524;BME280;56723;42.694;23.286;2023-04-21T08:07:01;94677.81;;;13.44;61.09
69524;BME280;56723;42.694;23.286;2023-04-21T08:09:28;94671.56;;;13.38;60.02
69524;BME280;56723;42.694;23.286;2023-04-21T08:11:55;94684.38;;;13.33;61.08
69524;BME280;56723;42.694;23.286;2023-04-21T08:14:23;94675.16;;;13.37;60.49
69524;BME280;56723;42.694;23.286;2023-04-21T08:16:53;94684.00;;;13.43;60.60
69524;BME280;56723;42.694;23.286;2023-04-21T08:19:22;94671.66;;;13.51;60.20
69524;BME280;56723;42.694;23.286;2023-04-21T08:21:50;94672.09;;;13.62;59.28
69524;BME280;56723;42.694;23.286;2023-04-21T08:24:17;94670.06;;;13.57;58.18
69524;BME280;56723;42.694;23.286;2023-04-21T08:26:44;94669.25;;;13.57;58.94
69524;BME280;56723;42.694;23.286;2023-04-21T08:29:11;94665.72;;;13.64;58.68
69524;BME280;56723;42.694;23.286;2023-04-21T08:31:39;94673.41;;;13.79;57.84
69524;BME280;56723;42.694;23.286;2023-04-21T08:34:06;94666.44;;;13.93;57.81
69524;BME280;56723;42.694;23.286;2023-04-21T08:36:33;94671.91;;;14.04;57.35
69524;BME280;56723;42.694;23.286;2023-04-21T08:39:00;94674.34;;;14.06;56.86
69524;BME280;56723;42.694;23.286;2023-04-21T08:41:27;94678.56;;;14.13;56.98
69524;BME280;56723;42.694;23.286;2023-04-21T08:43:54;94676.41;;;14.24;56.44
69524;BME280;56723;42.694;23.286;2023-04-21T08:46:22;94674.22;;;14.34;56.21
69524;BME280;56723;42.694;23.286;2023-04-21T08:48:50;94662.88;;;14.54;55.43
69524;BME280;56723;42.694;23.286;2023-04-21T08:51:21;94664.09;;;14.72;56.11
69524;BME280;56723;42.694;23.286;2023-04-21T08:53:50;94653.47;;;14.86;53.91
69524;BME280;56723;42.694;23.286;2023-04-21T08:56:17;94656.09;;;15.00;54.01
69524;BME280;56723;42.694;23.286;2023-04-21T08:58:44;94662.09;;;14.94;54.11
69524;BME280;56723;42.694;23.286;2023-04-21T09:01:11;94656.88;;;15.07;52.92
69524;BME280;56723;42.694;23.286;2023-04-21T09:03:38;94645.44;;;15.21;50.61
69524;BME280;56723;42.694;23.286;2023-04-21T09:06:08;94638.41;;;15.28;50.46
69524;BME280;56723;42.694;23.286;2023-04-21T09:08:37;94637.34;;;15.49;50.66
69524;BME280;56723;42.694;23.286;2023-04-21T09:11:05;94638.69;;;15.78;49.69
69524;BME280;56723;42.694;23.286;2023-04-21T09:13:34;94628.44;;;15.89;48.95
69524;BME280;56723;42.694;23.286;2023-04-21T09:16:03;94635.81;;;15.99;48.08
69524;BME280;56723;42.694;23.286;2023-04-21T09:18:36;94626.31;;;16.11;47.47
69524;BME280;56723;42.694;23.286;2023-04-21T09:23:47;94616.41;;;16.26;47.58
69524;BME280;56723;42.694;23.286;2023-04-21T09:26:19;94614.69;;;16.39;45.83
69524;BME280;56723;42.694;23.286;2023-04-21T09:28:49;94626.31;;;16.49;45.16
69524;BME280;56723;42.694;23.286;2023-04-21T09:31:23;94614.09;;;16.37;45.95
69524;BME280;56723;42.694;23.286;2023-04-21T09:33:53;94601.44;;;16.34;45.42
69524;BME280;56723;42.694;23.286;2023-04-21T09:36:27;94607.19;;;16.17;46.76
69524;BME280;56723;42.694;23.286;2023-04-21T09:38:57;94612.16;;;16.32;45.94
69524;BME280;56723;42.694;23.286;2023-04-21T09:41:44;94613.19;;;16.24;46.18
69524;BME280;56723;42.694;23.286;2023-04-21T09:44:11;94603.97;;;16.15;46.19
69524;BME280;56723;42.694;23.286;2023-04-21T09:46:41;94605.91;;;15.95;46.02
69524;BME280;56723;42.694;23.286;2023-04-21T09:49:12;94605.31;;;15.93;45.94
69524;BME280;56723;42.694;23.286;2023-04-21T09:51:42;94600.97;;;15.74;45.10
69524;BME280;56723;42.694;23.286;2023-04-21T09:54:31;94599.56;;;15.71;45.01
69524;BME280;56723;42.694;23.286;2023-04-21T09:57:01;94592.13;;;15.75;44.19
69524;BME280;56723;42.694;23.286;2023-04-21T09:59:33;94599.53;;;15.78;44.44
69524;BME280;56723;42.694;23.286;2023-04-21T10:02:04;94608.56;;;15.82;44.32
69524;BME280;56723;42.694;23.286;2023-04-21T10:04:33;94605.78;;;15.77;43.67
69524;BME280;56723;42.694;23.286;2023-04-21T10:07:01;94596.88;;;15.91;42.86
69524;BME280;56723;42.694;23.286;2023-04-21T10:09:51;94605.66;;;15.97;44.10
69524;BME280;56723;42.694;23.286;2023-04-21T10:12:21;94595.09;;;15.78;45.53
69524;BME280;56723;42.694;23.286;2023-04-21T10:14:52;94600.00;;;15.55;47.22
69524;BME280;56723;42.694;23.286;2023-04-21T10:17:24;94593.78;;;15.49;48.20
69524;BME280;56723;42.694;23.286;2023-04-21T10:19:54;94611.84;;;15.51;48.48
69524;BME280;56723;42.694;23.286;2023-04-21T10:22:30;94585.97;;;15.36;48.22
69524;BME280;56723;42.694;23.286;2023-04-21T10:24:59;94590.19;;;15.37;48.71
69524;BME280;56723;42.694;23.286;2023-04-21T10:27:34;94587.78;;;15.29;48.73
69524;BME280;56723;42.694;23.286;2023-04-21T10:30:17;94592.22;;;15.35;48.53
69524;BME280;56723;42.694;23.286;2023-04-21T10:32:45;94599.59;;;15.51;47.66
69524;BME280;56723;42.694;23.286;2023-04-21T10:35:14;94584.94;;;15.50;47.34
69524;BME280;56723;42.694;23.286;2023-04-21T10:37:47;94580.53;;;15.44;47.48
69524;BME280;56723;42.694;23.286;2023-04-21T10:43:41;94591.38;;;15.41;46.76
69524;BME280;56723;42.694;23.286;2023-04-21T10:46:30;94589.97;;;15.45;47.19
69524;BME280;56723;42.694;23.286;2023-04-21T10:49:11;94579.28;;;15.67;46.31
69524;BME280;56723;42.694;23.286;2023-04-21T10:54:28;94585.59;;;16.60;43.23
69524;BME280;56723;42.694;23.286;2023-04-21T10:56:58;94581.03;;;16.80;42.84
69524;BME280;56723;42.694;23.286;2023-04-21T10:59:27;94582.09;;;16.98;42.04
69524;BME280;56723;42.694;23.286;2023-04-21T11:01:54;94570.06;;;17.15;40.17
69524;BME280;56723;42.694;23.286;2023-04-21T11:04:21;94589.78;;;17.17;40.98
69524;BME280;56723;42.694;23.286;2023-04-21T11:09:41;94566.72;;;17.26;40.45
69524;BME280;56723;42.694;23.286;2023-04-21T11:12:10;94575.03;;;17.41;41.06
69524;BME280;56723;42.694;23.286;2023-04-21T11:14:38;94579.69;;;17.39;40.87
69524;BME280;56723;42.694;23.286;2023-04-21T11:17:10;94566.00;;;17.37;40.22
69524;BME280;56723;42.694;23.286;2023-04-21T11:19:38;94574.16;;;17.47;40.28
69524;BME280;56723;42.694;23.286;2023-04-21T11:22:05;94576.78;;;17.47;40.02
69524;BME280;56723;42.694;23.286;2023-04-21T11:24:32;94570.94;;;17.45;38.73
69524;BME280;56723;42.694;23.286;2023-04-21T11:26:59;94557.28;;;17.61;38.00
69524;BME280;56723;42.694;23.286;2023-04-21T11:29:28;94559.19;;;17.73;38.71
69524;BME280;56723;42.694;23.286;2023-04-21T11:31:55;94556.84;;;17.83;40.43
69524;BME280;56723;42.694;23.286;2023-04-21T11:34:22;94566.66;;;17.87;39.77
69524;BME280;56723;42.694;23.286;2023-04-21T11:36:51;94572.44;;;17.78;39.35
69524;BME280;56723;42.694;23.286;2023-04-21T11:39:20;94576.91;;;17.34;39.87
69524;BME280;56723;42.694;23.286;2023-04-21T11:41:48;94576.72;;;17.36;39.90
69524;BME280;56723;42.694;23.286;2023-04-21T11:44:41;94568.63;;;17.55;39.31
69524;BME280;56723;42.694;23.286;2023-04-21T11:47:17;94565.16;;;17.80;38.42
69524;BME280;56723;42.694;23.286;2023-04-21T11:49:45;94570.53;;;17.67;38.47
69524;BME280;56723;42.694;23.286;2023-04-21T11:52:32;94575.16;;;17.46;38.74
69524;BME280;56723;42.694;23.286;2023-04-21T11:55:12;94570.59;;;17.23;37.79
69524;BME280;56723;42.694;23.286;2023-04-21T11:57:41;94576.09;;;17.15;38.13
69524;BME280;56723;42.694;23.286;2023-04-21T12:00:10;94575.63;;;17.00;38.11
69524;BME280;56723;42.694;23.286;2023-04-21T12:02:39;94573.03;;;16.75;37.28
69524;BME280;56723;42.694;23.286;2023-04-21T12:05:08;94566.69;;;16.65;37.29
69524;BME280;56723;42.694;23.286;2023-04-21T12:07:45;94577.56;;;16.55;37.37
69524;BME280;56723;42.694;23.286;2023-04-21T12:10:17;94580.41;;;16.53;37.50
69524;BME280;56723;42.694;23.286;2023-04-21T12:12:44;94579.56;;;16.59;37.98
69524;BME280;56723;42.694;23.286;2023-04-21T12:15:17;94581.34;;;16.90;39.82
69524;BME280;56723;42.694;23.286;2023-04-21T12:17:47;94579.94;;;17.13;38.30
69524;BME280;56723;42.694;23.286;2023-04-21T12:20:19;94574.56;;;17.26;37.17
69524;BME280;56723;42.694;23.286;2023-04-21T12:22:47;94577.66;;;17.41;37.36
69524;BME280;56723;42.694;23.286;2023-04-21T12:25:15;94568.31;;;17.45;38.68
69524;BME280;56723;42.694;23.286;2023-04-21T12:27:51;94575.78;;;17.67;38.90
69524;BME280;56723;42.694;23.286;2023-04-21T12:30:19;94570.47;;;17.73;38.07
69524;BME280;56723;42.694;23.286;2023-04-21T12:32:47;94575.47;;;17.93;38.38
69524;BME280;56723;42.694;23.286;2023-04-21T12:35:14;94568.00;;;18.08;38.64
69524;BME280;56723;42.694;23.286;2023-04-21T12:37:43;94578.72;;;18.37;37.47
69524;BME280;56723;42.694;23.286;2023-04-21T12:40:10;94568.34;;;18.42;37.61
69524;BME280;56723;42.694;23.286;2023-04-21T12:42:37;94579.84;;;18.41;36.56
69524;BME280;56723;42.694;23.286;2023-04-21T12:45:05;94571.84;;;17.94;37.32
69524;BME280;56723;42.694;23.286;2023-04-21T12:47:33;94570.09;;;17.70;37.76
69524;BME280;56723;42.694;23.286;2023-04-21T12:50:00;94569.06;;;17.52;38.03
69524;BME280;56723;42.694;23.286;2023-04-21T12:52:27;94579.69;;;17.39;38.22
69524;BME280;56723;42.694;23.286;2023-04-21T12:54:54;94574.88;;;17.18;39.39
69524;BME280;56723;42.694;23.286;2023-04-21T12:57:22;94572.31;;;17.11;40.16
69524;BME280;56723;42.694;23.286;2023-04-21T12:59:49;94576.03;;;17.04;39.23
69524;BME280;56723;42.694;23.286;2023-04-21T13:02:16;94575.38;;;16.83;39.64
69524;BME280;56723;42.694;23.286;2023-04-21T13:04:43;94568.22;;;16.72;39.30
69524;BME280;56723;42.694;23.286;2023-04-21T13:07:10;94563.06;;;16.59;39.39
69524;BME280;56723;42.694;23.286;2023-04-21T13:09:37;94559.03;;;16.63;39.15
69524;BME280;56723;42.694;23.286;2023-04-21T13:12:04;94547.75;;;16.69;39.63
69524;BME280;56723;42.694;23.286;2023-04-21T13:14:32;94562.72;;;16.80;39.76
69524;BME280;56723;42.694;23.286;2023-04-21T13:16:59;94555.91;;;16.79;39.43
69524;BME280;56723;42.694;23.286;2023-04-21T13:19:26;94558.94;;;16.76;39.83
69524;BME280;56723;42.694;23.286;2023-04-21T13:21:54;94555.91;;;16.79;40.32
69524;BME280;56723;42.694;23.286;2023-04-21T13:24:22;94547.53;;;16.89;39.79
69524;BME280;56723;42.694;23.286;2023-04-21T13:26:51;94559.50;;;17.03;40.00
69524;BME280;56723;42.694;23.286;2023-04-21T13:29:18;94551.19;;;16.88;39.54
69524;BME280;56723;42.694;23.286;2023-04-21T13:31:45;94550.81;;;16.84;39.30
69524;BME280;56723;42.694;23.286;2023-04-21T13:34:12;94550.41;;;16.87;38.89
69524;BME280;56723;42.694;23.286;2023-04-21T13:36:39;94550.81;;;16.84;39.44
69524;BME280;56723;42.694;23.286;2023-04-21T13:39:10;94549.59;;;16.87;39.35
69524;BME280;56723;42.694;23.286;2023-04-21T13:41:37;94551.06;;;17.01;39.42
69524;BME280;56723;42.694;23.286;2023-04-21T13:44:04;94545.88;;;16.94;38.89
69524;BME280;56723;42.694;23.286;2023-04-21T13:46:32;94544.56;;;16.85;39.15
69524;BME280;56723;42.694;23.286;2023-04-21T13:49:00;94538.34;;;16.86;39.51
69524;BME280;56723;42.694;23.286;2023-04-21T13:51:27;94539.06;;;16.93;39.80
69524;BME280;56723;42.694;23.286;2023-04-21T13:53:55;94538.56;;;17.03;39.97
69524;BME280;56723;42.694;23.286;2023-04-21T13:56:22;94537.19;;;17.19;39.45
69524;BME280;56723;42.694;23.286;2023-04-21T13:58:49;94542.94;;;17.27;38.93
69524;BME280;56723;42.694;23.286;2023-04-21T14:01:16;94534.22;;;17.15;39.05
69524;BME280;56723;42.694;23.286;2023-04-21T14:03:46;94532.75;;;17.19;39.36
69524;BME280;56723;42.694;23.286;2023-04-21T14:06:14;94539.88;;;17.30;39.39
69524;BME280;56723;42.694;23.286;2023-04-21T14:08:42;94536.78;;;17.40;39.17
69524;BME280;56723;42.694;23.286;2023-04-21T14:11:09;94532.13;;;17.42;38.43
69524;BME280;56723;42.694;23.286;2023-04-21T14:13:36;94531.66;;;17.63;38.50
69524;BME280;56723;42.694;23.286;2023-04-21T14:16:23;94528.28;;;17.93;40.05
69524;BME280;56723;42.694;23.286;2023-04-21T14:18:50;94522.66;;;18.19;36.67
69524;BME280;56723;42.694;23.286;2023-04-21T14:21:18;94522.72;;;18.43;36.58
69524;BME280;56723;42.694;23.286;2023-04-21T14:23:44;94512.34;;;18.36;35.84
69524;BME280;56723;42.694;23.286;2023-04-21T14:26:12;94518.94;;;18.39;36.63
69524;BME280;56723;42.694;23.286;2023-04-21T14:28:39;94516.47;;;18.44;37.00
69524;BME280;56723;42.694;23.286;2023-04-21T14:31:06;94507.97;;;18.83;36.95
69524;BME280;56723;42.694;23.286;2023-04-21T14:33:33;94506.91;;;19.19;34.93
69524;BME280;56723;42.694;23.286;2023-04-21T14:36:01;94502.56;;;19.36;35.23
69524;BME280;56723;42.694;23.286;2023-04-21T14:38:28;94507.09;;;19.53;34.50
69524;BME280;56723;42.694;23.286;2023-04-21T14:40:56;94507.97;;;19.70;34.11
69524;BME280;56723;42.694;23.286;2023-04-21T14:43:23;94506.91;;;19.83;34.00
69524;BME280;56723;42.694;23.286;2023-04-21T14:45:51;94509.91;;;19.75;34.82
69524;BME280;56723;42.694;23.286;2023-04-21T14:48:19;94509.56;;;19.83;34.99
69524;BME280;56723;42.694;23.286;2023-04-21T14:50:46;94517.06;;;19.39;35.61
69524;BME280;56723;42.694;23.286;2023-04-21T14:53:13;94515.16;;;18.76;37.36
69524;BME280;56723;42.694;23.286;2023-04-21T14:55:41;94523.16;;;18.70;38.64
69524;BME280;56723;42.694;23.286;2023-04-21T14:58:08;94543.13;;;18.71;48.65
69524;BME280;56723;42.694;23.286;2023-04-21T15:00:35;94537.72;;;18.12;44.59
69524;BME280;56723;42.694;23.286;2023-04-21T15:03:02;94530.34;;;17.91;49.45
69524;BME280;56723;42.694;23.286;2023-04-21T15:05:29;94522.31;;;17.86;53.88
69524;BME280;56723;42.694;23.286;2023-04-21T15:07:56;94530.41;;;17.84;57.50
69524;BME280;56723;42.694;23.286;2023-04-21T15:10:23;94531.25;;;17.67;57.55
69524;BME280;56723;42.694;23.286;2023-04-21T15:12:50;94534.44;;;17.50;57.50
69524;BME280;56723;42.694;23.286;2023-04-21T15:15:18;94524.19;;;17.30;50.22
69524;BME280;56723;42.694;23.286;2023-04-21T15:17:45;94529.19;;;17.14;50.01
69524;BME280;56723;42.694;23.286;2023-04-21T15:20:12;94532.25;;;17.11;51.52
69524;BME280;56723;42.694;23.286;2023-04-21T15:22:39;94535.53;;;17.06;57.06
69524;BME280;56723;42.694;23.286;2023-04-21T15:25:07;94532.16;;;16.99;46.25
69524;BME280;56723;42.694;23.286;2023-04-21T15:27:34;94542.56;;;17.06;49.14
69524;BME280;56723;42.694;23.286;2023-04-21T15:30:03;94521.03;;;16.85;43.87
69524;BME280;56723;42.694;23.286;2023-04-21T15:32:30;94531.66;;;17.09;44.22
69524;BME280;56723;42.694;23.286;2023-04-21T15:34:57;94538.44;;;17.35;43.29
69524;BME280;56723;42.694;23.286;2023-04-21T15:37:24;94535.22;;;17.33;41.77
69524;BME280;56723;42.694;23.286;2023-04-21T15:39:51;94536.25;;;17.31;44.87
69524;BME280;56723;42.694;23.286;2023-04-21T15:42:19;94542.00;;;17.40;42.41
69524;BME280;56723;42.694;23.286;2023-04-21T15:44:46;94542.50;;;17.30;40.14
69524;BME280;56723;42.694;23.286;2023-04-21T15:47:13;94540.09;;;17.11;41.03
69524;BME280;56723;42.694;23.286;2023-04-21T15:49:42;94538.03;;;16.94;42.49
69524;BME280;56723;42.694;23.286;2023-04-21T15:52:09;94536.47;;;17.12;41.36
69524;BME280;56723;42.694;23.286;2023-04-21T15:54:36;94535.44;;;17.31;42.15
69524;BME280;56723;42.694;23.286;2023-04-21T15:57:04;94528.13;;;17.40;41.32
69524;BME280;56723;42.694;23.286;2023-04-21T15:59:31;94529.56;;;17.36;40.65
69524;BME280;56723;42.694;23.286;2023-04-21T16:01:58;94538.44;;;17.53;41.75
69524;BME280;56723;42.694;23.286;2023-04-21T16:04:26;94543.88;;;17.88;41.70
69524;BME280;56723;42.694;23.286;2023-04-21T16:06:53;94537.72;;;18.12;39.34
69524;BME280;56723;42.694;23.286;2023-04-21T16:09:20;94542.75;;;18.25;39.36
69524;BME280;56723;42.694;23.286;2023-04-21T16:11:47;94542.22;;;18.35;39.39
69524;BME280;56723;42.694;23.286;2023-04-21T16:14:16;94544.28;;;18.33;39.41
69524;BME280;56723;42.694;23.286;2023-04-21T16:16:43;94550.56;;;18.44;39.25
69524;BME280;56723;42.694;23.286;2023-04-21T16:19:11;94543.56;;;18.38;39.52
69524;BME280;56723;42.694;23.286;2023-04-21T16:21:38;94540.06;;;18.44;40.48
69524;BME280;56723;42.694;23.286;2023-04-21T16:24:06;94538.38;;;18.49;38.71
69524;BME280;56723;42.694;23.286;2023-04-21T16:26:34;94546.25;;;18.49;39.27
69524;BME280;56723;42.694;23.286;2023-04-21T16:29:02;94536.41;;;18.45;39.89
69524;BME280;56723;42.694;23.286;2023-04-21T16:31:29;94534.03;;;18.43;40.75
69524;BME280;56723;42.694;23.286;2023-04-21T16:33:57;94549.25;;;18.23;41.36
69524;BME280;56723;42.694;23.286;2023-04-21T16:36:26;94539.34;;;17.95;41.94
69524;BME280;56723;42.694;23.286;2023-04-21T16:38:54;94543.03;;;17.76;42.48
69524;BME280;56723;42.694;23.286;2023-04-21T16:41:21;94538.81;;;17.56;42.66
69524;BME280;56723;42.694;23.286;2023-04-21T16:43:49;94543.47;;;17.36;42.16
69524;BME280;56723;42.694;23.286;2023-04-21T16:46:16;94548.09;;;17.16;43.07
69524;BME280;56723;42.694;23.286;2023-04-21T16:48:44;94551.50;;;16.98;43.44
69524;BME280;56723;42.694;23.286;2023-04-21T16:51:12;94554.31;;;16.96;44.10
69524;BME280;56723;42.694;23.286;2023-04-21T16:53:39;94551.03;;;16.83;44.26
69524;BME280;56723;42.694;23.286;2023-04-21T16:56:07;94561.03;;;16.61;46.10
69524;BME280;56723;42.694;23.286;2023-04-21T16:58:35;94562.53;;;16.19;45.88
69524;BME280;56723;42.694;23.286;2023-04-21T17:01:03;94562.69;;;15.92;47.14
69524;BME280;56723;42.694;23.286;2023-04-21T17:03:31;94557.19;;;15.63;47.55
69524;BME280;56723;42.694;23.286;2023-04-21T17:05:58;94559.31;;;15.21;48.82
69524;BME280;56723;42.694;23.286;2023-04-21T17:08:25;94556.94;;;14.86;49.96
69524;BME280;56723;42.694;23.286;2023-04-21T17:10:52;94563.19;;;14.72;51.88
69524;BME280;56723;42.694;23.286;2023-04-21T17:22:11;94577.53;;;14.15;55.17
